sensor_id;sensor_type;location;lat;lon;timestamp;temperature;humidity
13336;DHT22;6737;51.480;11.962;2022-10-26T00:01:30;9.10;99.90
13336;DHT22;6737;51.480;11.962;2022-10-26T00:03:56;9.00;99.90
13336;DHT22;6737;51.480;11.962;2022-10-26T00:06:24;9.00;99.90
13336;DHT22;6737;51.480;11.962;2022-10-26T00:08:51;9.10;99.90
13336;DHT22;6737;51.480;11.962;2022-10-26T00:11:18;9.10;99.90
13336;DHT22;6737;51.480;11.962;2022-10-26T00:13:46;9.20;99.90
13336;DHT22;6737;51.480;11.962;2022-10-26T00:16:15;9.20;99.90
13336;DHT22;6737;51.480;11.962;2022-10-26T00:18:41;9.20;99.90
13336;DHT22;6737;51.480;11.962;2022-10-26T00:21:09;9.10;99.90
13336;DHT22;6737;51.480;11.962;2022-10-26T00:23:35;9.10;99.90
13336;DHT22;6737;51.480;11.962;2022-10-26T00:26:01;9.00;99.90
13336;DHT22;6737;51.480;11.962;2022-10-26T00:28:27;9.00;99.90
13336;DHT22;6737;51.480;11.962;2022-10-26T00:30:53;9.00;99.90
13336;DHT22;6737;51.480;11.962;2022-10-26T00:33:19;9.00;99.90
13336;DHT22;6737;51.480;11.962;2022-10-26T00:35:52;8.90;99.90
13336;DHT22;6737;51.480;11.962;2022-10-26T00:38:18;8.80;99.90
13336;DHT22;6737;51.480;11.962;2022-10-26T00:40:44;8.80;99.90
13336;DHT22;6737;51.480;11.962;2022-10-26T00:45:47;8.80;99.90
13336;DHT22;6737;51.480;11.962;2022-10-26T00:48:27;8.70;99.90
13336;DHT22;6737;51.480;11.962;2022-10-26T00:50:56;8.70;99.90
13336;DHT22;6737;51.480;11.962;2022-10-26T00:53:23;8.70;99.90
13336;DHT22;6737;51.480;11.962;2022-10-26T00:55:50;8.80;99.90
13336;DHT22;6737;51.480;11.962;2022-10-26T00:58:17;8.80;99.90
13336;DHT22;6737;51.480;11.962;2022-10-26T01:00:44;8.80;99.90
13336;DHT22;6737;51.480;11.962;2022-10-26T01:03:10;8.70;99.90
13336;DHT22;6737;51.480;11.962;2022-10-26T01:05:39;8.70;99.90
13336;DHT22;6737;51.480;11.962;2022-10-26T01:08:06;8.80;99.90
13336;DHT22;6737;51.480;11.962;2022-10-26T01:10:34;8.80;99.90
13336;DHT22;6737;51.480;11.962;2022-10-26T01:13:01;8.90;99.90
13336;DHT22;6737;51.480;11.962;2022-10-26T01:15:48;9.00;99.90
13336;DHT22;6737;51.480;11.962;2022-10-26T01:18:29;9.00;99.90
13336;DHT22;6737;51.480;11.962;2022-10-26T01:35:28;9.10;99.90
13336;DHT22;6737;51.480;11.962;2022-10-26T01:40:39;9.10;99.90
13336;DHT22;6737;51.480;11.962;2022-10-26T01:43:09;9.00;99.90
13336;DHT22;6737;51.480;11.962;2022-10-26T01:45:39;9.10;99.90
13336;DHT22;6737;51.480;11.962;2022-10-26T01:48:08;9.00;99.90
13336;DHT22;6737;51.480;11.962;2022-10-26T01:50:34;8.90;99.90
13336;DHT22;6737;51.480;11.962;2022-10-26T01:53:00;8.90;99.90
13336;DHT22;6737;51.480;11.962;2022-10-26T01:55:38;9.00;99.90
13336;DHT22;6737;51.480;11.962;2022-10-26T02:09:40;8.80;99.90
13336;DHT22;6737;51.480;11.962;2022-10-26T02:12:19;8.80;99.90
13336;DHT22;6737;51.480;11.962;2022-10-26T02:15:00;8.70;99.90
13336;DHT22;6737;51.480;11.962;2022-10-26T02:18:12;8.60;99.90
13336;DHT22;6737;51.480;11.962;2022-10-26T02:20:44;8.60;99.90
13336;DHT22;6737;51.480;11.962;2022-10-26T02:23:11;8.70;99.90
13336;DHT22;6737;51.480;11.962;2022-10-26T02:25:48;8.70;99.90
13336;DHT22;6737;51.480;11.962;2022-10-26T02:28:18;8.80;99.90
13336;DHT22;6737;51.480;11.962;2022-10-26T02:30:47;8.70;99.90
13336;DHT22;6737;51.480;11.962;2022-10-26T02:33:16;8.70;99.90
13336;DHT22;6737;51.480;11.962;2022-10-26T02:35:47;8.70;99.90
13336;DHT22;6737;51.480;11.962;2022-10-26T02:38:15;8.70;99.90
13336;DHT22;6737;51.480;11.962;2022-10-26T02:40:46;8.80;99.90
13336;DHT22;6737;51.480;11.962;2022-10-26T02:43:15;8.80;99.90
13336;DHT22;6737;51.480;11.962;2022-10-26T02:46:03;8.70;99.90
13336;DHT22;6737;51.480;11.962;2022-10-26T02:48:30;8.70;99.90
13336;DHT22;6737;51.480;11.962;2022-10-26T02:51:15;8.70;99.90
13336;DHT22;6737;51.480;11.962;2022-10-26T02:53:50;8.60;99.90
13336;DHT22;6737;51.480;11.962;2022-10-26T02:56:24;8.60;99.90
13336;DHT22;6737;51.480;11.962;2022-10-26T02:58:56;8.50;99.90
13336;DHT22;6737;51.480;11.962;2022-10-26T03:01:24;8.40;99.90
13336;DHT22;6737;51.480;11.962;2022-10-26T03:03:50;8.40;99.90
13336;DHT22;6737;51.480;11.962;2022-10-26T03:06:22;8.30;99.90
13336;DHT22;6737;51.480;11.962;2022-10-26T03:08:48;8.40;99.90
13336;DHT22;6737;51.480;11.962;2022-10-26T03:11:15;8.20;99.90
13336;DHT22;6737;51.480;11.962;2022-10-26T03:13:41;8.20;99.90
13336;DHT22;6737;51.480;11.962;2022-10-26T03:16:06;8.20;99.90
13336;DHT22;6737;51.480;11.962;2022-10-26T03:18:32;8.30;99.90
13336;DHT22;6737;51.480;11.962;2022-10-26T03:20:58;8.30;99.90
13336;DHT22;6737;51.480;11.962;2022-10-26T03:23:24;8.20;99.90
13336;DHT22;6737;51.480;11.962;2022-10-26T03:25:49;8.30;99.90
13336;DHT22;6737;51.480;11.962;2022-10-26T03:28:15;8.30;99.90
13336;DHT22;6737;51.480;11.962;2022-10-26T03:30:41;8.30;99.90
13336;DHT22;6737;51.480;11.962;2022-10-26T03:33:07;8.40;99.90
13336;DHT22;6737;51.480;11.962;2022-10-26T03:35:33;8.40;99.90
13336;DHT22;6737;51.480;11.962;2022-10-26T03:37:58;8.40;99.90
13336;DHT22;6737;51.480;11.962;2022-10-26T03:40:24;8.50;99.90
13336;DHT22;6737;51.480;11.962;2022-10-26T03:42:50;8.50;99.90
13336;DHT22;6737;51.480;11.962;2022-10-26T03:45:16;8.40;99.90
13336;DHT22;6737;51.480;11.962;2022-10-26T03:47:46;8.30;99.90
13336;DHT22;6737;51.480;11.962;2022-10-26T03:50:14;8.40;99.90
13336;DHT22;6737;51.480;11.962;2022-10-26T03:52:40;8.40;99.90
13336;DHT22;6737;51.480;11.962;2022-10-26T03:55:06;8.30;99.90
13336;DHT22;6737;51.480;11.962;2022-10-26T03:57:32;8.20;99.90
13336;DHT22;6737;51.480;11.962;2022-10-26T03:59:58;8.10;99.90
13336;DHT22;6737;51.480;11.962;2022-10-26T04:02:23;8.20;99.90
13336;DHT22;6737;51.480;11.962;2022-10-26T04:04:49;8.20;99.90
13336;DHT22;6737;51.480;11.962;2022-10-26T04:07:15;8.20;99.90
13336;DHT22;6737;51.480;11.962;2022-10-26T04:09:41;8.20;99.90
13336;DHT22;6737;51.480;11.962;2022-10-26T04:12:06;8.10;99.90
13336;DHT22;6737;51.480;11.962;2022-10-26T04:14:32;8.10;99.90
13336;DHT22;6737;51.480;11.962;2022-10-26T04:16:58;8.10;99.90
13336;DHT22;6737;51.480;11.962;2022-10-26T04:19:24;8.10;99.90
13336;DHT22;6737;51.480;11.962;2022-10-26T04:21:50;8.10;99.90
13336;DHT22;6737;51.480;11.962;2022-10-26T04:24:16;8.20;99.90
13336;DHT22;6737;51.480;11.962;2022-10-26T04:26:42;8.30;99.90
13336;DHT22;6737;51.480;11.962;2022-10-26T04:29:10;8.30;99.90
13336;DHT22;6737;51.480;11.962;2022-10-26T04:31:36;8.20;99.90
13336;DHT22;6737;51.480;11.962;2022-10-26T04:34:02;8.20;99.90
13336;DHT22;6737;51.480;11.962;2022-10-26T04:36:29;8.10;99.90
13336;DHT22;6737;51.480;11.962;2022-10-26T04:38:54;8.10;99.90
13336;DHT22;6737;51.480;11.962;2022-10-26T04:41:20;8.10;99.90
13336;DHT22;6737;51.480;11.962;2022-10-26T04:43:46;8.10;99.90
13336;DHT22;6737;51.480;11.962;2022-10-26T04:46:12;8.10;99.90
13336;DHT22;6737;51.480;11.962;2022-10-26T04:48:39;8.20;99.90
13336;DHT22;6737;51.480;11.962;2022-10-26T04:51:04;8.20;99.90
13336;DHT22;6737;51.480;11.962;2022-10-26T04:53:30;8.30;99.90
13336;DHT22;6737;51.480;11.962;2022-10-26T04:55:57;8.40;99.90
13336;DHT22;6737;51.480;11.962;2022-10-26T04:58:23;8.40;99.90
13336;DHT22;6737;51.480;11.962;2022-10-26T05:00:48;8.40;99.90
13336;DHT22;6737;51.480;11.962;2022-10-26T05:03:14;8.40;99.90
13336;DHT22;6737;51.480;11.962;2022-10-26T05:05:40;8.50;99.90
13336;DHT22;6737;51.480;11.962;2022-10-26T05:08:06;8.60;99.90
13336;DHT22;6737;51.480;11.962;2022-10-26T05:10:32;8.60;99.90
13336;DHT22;6737;51.480;11.962;2022-10-26T05:12:59;8.70;99.90
13336;DHT22;6737;51.480;11.962;2022-10-26T05:15:27;8.70;99.90
13336;DHT22;6737;51.480;11.962;2022-10-26T05:17:55;8.80;99.90
13336;DHT22;6737;51.480;11.962;2022-10-26T05:20:22;8.90;99.90
13336;DHT22;6737;51.480;11.962;2022-10-26T05:22:54;8.90;99.90
13336;DHT22;6737;51.480;11.962;2022-10-26T05:25:20;8.90;99.90
13336;DHT22;6737;51.480;11.962;2022-10-26T05:27:46;8.90;99.90
13336;DHT22;6737;51.480;11.962;2022-10-26T05:30:11;8.90;99.90
13336;DHT22;6737;51.480;11.962;2022-10-26T05:32:37;8.90;99.90
13336;DHT22;6737;51.480;11.962;2022-10-26T05:35:03;8.80;99.90
13336;DHT22;6737;51.480;11.962;2022-10-26T05:37:29;8.80;99.90
13336;DHT22;6737;51.480;11.962;2022-10-26T05:39:55;8.90;99.90
13336;DHT22;6737;51.480;11.962;2022-10-26T05:42:21;8.80;99.90
13336;DHT22;6737;51.480;11.962;2022-10-26T05:44:47;8.80;99.90
13336;DHT22;6737;51.480;11.962;2022-10-26T05:47:12;8.80;99.90
13336;DHT22;6737;51.480;11.962;2022-10-26T05:49:38;8.80;99.90
13336;DHT22;6737;51.480;11.962;2022-10-26T05:52:04;8.80;99.90
13336;DHT22;6737;51.480;11.962;2022-10-26T05:54:30;8.70;99.90
13336;DHT22;6737;51.480;11.962;2022-10-26T05:56:56;8.70;99.90
13336;DHT22;6737;51.480;11.962;2022-10-26T05:59:22;8.70;99.90
13336;DHT22;6737;51.480;11.962;2022-10-26T06:02:32;8.70;99.90
13336;DHT22;6737;51.480;11.962;2022-10-26T06:05:04;8.70;99.90
13336;DHT22;6737;51.480;11.962;2022-10-26T06:07:30;8.60;99.90
13336;DHT22;6737;51.480;11.962;2022-10-26T06:09:56;8.60;99.90
13336;DHT22;6737;51.480;11.962;2022-10-26T06:12:22;8.60;99.90
13336;DHT22;6737;51.480;11.962;2022-10-26T06:14:50;8.50;99.90
13336;DHT22;6737;51.480;11.962;2022-10-26T06:20:16;8.50;99.90
13336;DHT22;6737;51.480;11.962;2022-10-26T06:25:42;8.50;99.90
13336;DHT22;6737;51.480;11.962;2022-10-26T06:28:27;8.50;99.90
13336;DHT22;6737;51.480;11.962;2022-10-26T06:30:57;8.60;99.90
13336;DHT22;6737;51.480;11.962;2022-10-26T06:33:23;8.70;99.90
13336;DHT22;6737;51.480;11.962;2022-10-26T06:38:26;8.90;99.90
13336;DHT22;6737;51.480;11.962;2022-10-26T06:40:55;8.90;99.90
13336;DHT22;6737;51.480;11.962;2022-10-26T06:43:26;8.80;99.90
13336;DHT22;6737;51.480;11.962;2022-10-26T06:48:48;8.90;99.90
13336;DHT22;6737;51.480;11.962;2022-10-26T06:51:17;8.90;99.90
13336;DHT22;6737;51.480;11.962;2022-10-26T06:53:51;8.90;99.90
13336;DHT22;6737;51.480;11.962;2022-10-26T06:56:18;9.00;99.90
13336;DHT22;6737;51.480;11.962;2022-10-26T06:58:45;9.00;99.90
13336;DHT22;6737;51.480;11.962;2022-10-26T07:01:12;9.10;99.90
13336;DHT22;6737;51.480;11.962;2022-10-26T07:03:38;9.20;99.90
13336;DHT22;6737;51.480;11.962;2022-10-26T07:06:04;9.30;99.90
13336;DHT22;6737;51.480;11.962;2022-10-26T07:08:31;9.40;99.90
13336;DHT22;6737;51.480;11.962;2022-10-26T07:10:56;9.40;99.90
13336;DHT22;6737;51.480;11.962;2022-10-26T07:13:22;9.50;99.90
13336;DHT22;6737;51.480;11.962;2022-10-26T07:15:48;9.60;99.90
13336;DHT22;6737;51.480;11.962;2022-10-26T07:18:14;9.70;99.90
13336;DHT22;6737;51.480;11.962;2022-10-26T07:20:40;9.70;99.90
13336;DHT22;6737;51.480;11.962;2022-10-26T07:23:08;9.90;99.90
13336;DHT22;6737;51.480;11.962;2022-10-26T07:25:36;10.00;99.90
13336;DHT22;6737;51.480;11.962;2022-10-26T07:28:06;10.00;99.90
13336;DHT22;6737;51.480;11.962;2022-10-26T07:30:35;10.10;99.90
13336;DHT22;6737;51.480;11.962;2022-10-26T07:33:18;10.20;99.90
13336;DHT22;6737;51.480;11.962;2022-10-26T07:35:44;10.30;99.90
13336;DHT22;6737;51.480;11.962;2022-10-26T07:38:11;10.40;99.90
13336;DHT22;6737;51.480;11.962;2022-10-26T07:40:38;10.40;99.90
13336;DHT22;6737;51.480;11.962;2022-10-26T07:43:03;10.50;99.90
13336;DHT22;6737;51.480;11.962;2022-10-26T07:45:29;10.50;99.90
13336;DHT22;6737;51.480;11.962;2022-10-26T07:47:56;10.60;99.90
13336;DHT22;6737;51.480;11.962;2022-10-26T07:50:22;10.60;99.90
13336;DHT22;6737;51.480;11.962;2022-10-26T07:52:48;10.60;99.90
13336;DHT22;6737;51.480;11.962;2022-10-26T07:55:14;10.60;99.90
13336;DHT22;6737;51.480;11.962;2022-10-26T07:57:40;10.70;99.90
13336;DHT22;6737;51.480;11.962;2022-10-26T08:00:07;10.70;99.90
13336;DHT22;6737;51.480;11.962;2022-10-26T08:02:34;10.80;99.90
13336;DHT22;6737;51.480;11.962;2022-10-26T08:05:02;10.80;99.90
13336;DHT22;6737;51.480;11.962;2022-10-26T08:07:28;10.90;99.90
13336;DHT22;6737;51.480;11.962;2022-10-26T08:09:54;11.00;99.90
13336;DHT22;6737;51.480;11.962;2022-10-26T08:12:20;11.00;99.90
13336;DHT22;6737;51.480;11.962;2022-10-26T08:14:45;11.10;99.90
13336;DHT22;6737;51.480;11.962;2022-10-26T08:17:11;11.20;99.90
13336;DHT22;6737;51.480;11.962;2022-10-26T08:19:37;11.20;99.90
13336;DHT22;6737;51.480;11.962;2022-10-26T08:22:03;11.40;99.90
13336;DHT22;6737;51.480;11.962;2022-10-26T08:24:29;11.50;99.90
13336;DHT22;6737;51.480;11.962;2022-10-26T08:26:54;11.60;99.90
13336;DHT22;6737;51.480;11.962;2022-10-26T08:29:20;11.60;99.90
13336;DHT22;6737;51.480;11.962;2022-10-26T08:31:47;11.70;99.90
13336;DHT22;6737;51.480;11.962;2022-10-26T08:34:13;11.80;99.90
13336;DHT22;6737;51.480;11.962;2022-10-26T08:36:39;11.90;99.90
13336;DHT22;6737;51.480;11.962;2022-10-26T08:39:04;12.00;99.90
13336;DHT22;6737;51.480;11.962;2022-10-26T08:42:00;12.10;99.90
13336;DHT22;6737;51.480;11.962;2022-10-26T08:44:35;12.10;99.90
13336;DHT22;6737;51.480;11.962;2022-10-26T08:52:10;12.20;99.90
13336;DHT22;6737;51.480;11.962;2022-10-26T08:54:39;12.30;99.90
13336;DHT22;6737;51.480;11.962;2022-10-26T08:57:21;12.30;99.90
13336;DHT22;6737;51.480;11.962;2022-10-26T09:00:05;12.40;99.90
13336;DHT22;6737;51.480;11.962;2022-10-26T09:02:31;12.60;99.90
13336;DHT22;6737;51.480;11.962;2022-10-26T09:04:58;12.70;99.90
13336;DHT22;6737;51.480;11.962;2022-10-26T09:15:46;12.80;99.90
13336;DHT22;6737;51.480;11.962;2022-10-26T09:26:01;12.90;99.90
13336;DHT22;6737;51.480;11.962;2022-10-26T09:28:33;13.00;99.90
13336;DHT22;6737;51.480;11.962;2022-10-26T09:31:01;13.10;99.90
13336;DHT22;6737;51.480;11.962;2022-10-26T09:33:30;13.10;99.90
13336;DHT22;6737;51.480;11.962;2022-10-26T09:36:11;13.20;99.90
13336;DHT22;6737;51.480;11.962;2022-10-26T09:38:50;13.20;99.90
13336;DHT22;6737;51.480;11.962;2022-10-26T09:41:41;13.30;99.90
13336;DHT22;6737;51.480;11.962;2022-10-26T09:44:24;13.40;99.90
13336;DHT22;6737;51.480;11.962;2022-10-26T09:49:38;13.50;99.90
13336;DHT22;6737;51.480;11.962;2022-10-26T09:52:07;13.50;99.90
13336;DHT22;6737;51.480;11.962;2022-10-26T09:54:33;13.60;99.90
13336;DHT22;6737;51.480;11.962;2022-10-26T09:57:00;13.60;99.90
13336;DHT22;6737;51.480;11.962;2022-10-26T09:59:27;13.60;99.90
13336;DHT22;6737;51.480;11.962;2022-10-26T10:01:54;13.60;99.90
13336;DHT22;6737;51.480;11.962;2022-10-26T10:04:22;13.70;99.90
13336;DHT22;6737;51.480;11.962;2022-10-26T10:09:26;13.80;99.90
13336;DHT22;6737;51.480;11.962;2022-10-26T10:11:56;13.80;99.90
13336;DHT22;6737;51.480;11.962;2022-10-26T10:14:37;13.90;99.90
13336;DHT22;6737;51.480;11.962;2022-10-26T10:17:06;14.00;99.90
13336;DHT22;6737;51.480;11.962;2022-10-26T10:19:35;14.10;99.90
13336;DHT22;6737;51.480;11.962;2022-10-26T10:24:41;14.30;99.90
13336;DHT22;6737;51.480;11.962;2022-10-26T10:30:27;14.70;99.90
13336;DHT22;6737;51.480;11.962;2022-10-26T10:33:09;14.90;99.90
13336;DHT22;6737;51.480;11.962;2022-10-26T10:35:35;14.90;99.90
13336;DHT22;6737;51.480;11.962;2022-10-26T10:38:03;15.00;99.90
13336;DHT22;6737;51.480;11.962;2022-10-26T10:40:29;15.00;99.90
13336;DHT22;6737;51.480;11.962;2022-10-26T10:43:12;14.90;99.90
13336;DHT22;6737;51.480;11.962;2022-10-26T10:45:40;14.80;99.90
13336;DHT22;6737;51.480;11.962;2022-10-26T10:50:47;14.80;99.90
13336;DHT22;6737;51.480;11.962;2022-10-26T10:53:24;14.70;99.90
13336;DHT22;6737;51.480;11.962;2022-10-26T11:01:35;14.80;99.90
13336;DHT22;6737;51.480;11.962;2022-10-26T11:07:06;14.70;99.90
13336;DHT22;6737;51.480;11.962;2022-10-26T11:09:38;14.70;99.90
13336;DHT22;6737;51.480;11.962;2022-10-26T11:12:15;14.80;99.90
13336;DHT22;6737;51.480;11.962;2022-10-26T11:14:48;14.80;99.90
13336;DHT22;6737;51.480;11.962;2022-10-26T11:17:35;14.70;99.90
13336;DHT22;6737;51.480;11.962;2022-10-26T11:20:13;14.80;99.90
13336;DHT22;6737;51.480;11.962;2022-10-26T11:23:20;14.80;99.90
13336;DHT22;6737;51.480;11.962;2022-10-26T11:25:51;14.80;99.90
13336;DHT22;6737;51.480;11.962;2022-10-26T11:28:34;14.90;99.90
13336;DHT22;6737;51.480;11.962;2022-10-26T11:31:06;14.90;99.90
13336;DHT22;6737;51.480;11.962;2022-10-26T11:33:40;14.90;99.90
13336;DHT22;6737;51.480;11.962;2022-10-26T11:36:14;14.90;99.90
13336;DHT22;6737;51.480;11.962;2022-10-26T11:38:52;14.90;99.90
13336;DHT22;6737;51.480;11.962;2022-10-26T11:41:34;14.90;99.90
13336;DHT22;6737;51.480;11.962;2022-10-26T11:44:21;14.90;99.90
13336;DHT22;6737;51.480;11.962;2022-10-26T11:47:00;14.80;99.90
13336;DHT22;6737;51.480;11.962;2022-10-26T11:52:16;14.80;99.90
13336;DHT22;6737;51.480;11.962;2022-10-26T11:54:48;14.80;99.90
13336;DHT22;6737;51.480;11.962;2022-10-26T11:57:18;14.80;99.90
13336;DHT22;6737;51.480;11.962;2022-10-26T11:59:54;14.80;99.90
13336;DHT22;6737;51.480;11.962;2022-10-26T12:02:24;14.80;99.90
13336;DHT22;6737;51.480;11.962;2022-10-26T12:04:58;14.80;99.90
13336;DHT22;6737;51.480;11.962;2022-10-26T12:07:28;14.80;99.90
13336;DHT22;6737;51.480;11.962;2022-10-26T12:09:56;14.70;99.90
13336;DHT22;6737;51.480;11.962;2022-10-26T12:15:27;14.80;99.90
13336;DHT22;6737;51.480;11.962;2022-10-26T12:20:52;14.80;99.90
13336;DHT22;6737;51.480;11.962;2022-10-26T12:23:18;14.80;99.90
13336;DHT22;6737;51.480;11.962;2022-10-26T12:25:44;14.90;99.90
13336;DHT22;6737;51.480;11.962;2022-10-26T12:33:58;15.10;99.90
13336;DHT22;6737;51.480;11.962;2022-10-26T12:39:41;15.10;99.90
13336;DHT22;6737;51.480;11.962;2022-10-26T13:00:26;15.60;99.90
13336;DHT22;6737;51.480;11.962;2022-10-26T13:09:13;15.60;99.90
13336;DHT22;6737;51.480;11.962;2022-10-26T13:11:51;15.60;99.90
13336;DHT22;6737;51.480;11.962;2022-10-26T13:17:41;15.60;99.90
13336;DHT22;6737;51.480;11.962;2022-10-26T13:20:17;15.60;99.90
13336;DHT22;6737;51.480;11.962;2022-10-26T13:22:45;15.70;99.90
13336;DHT22;6737;51.480;11.962;2022-10-26T13:25:25;15.70;99.90
13336;DHT22;6737;51.480;11.962;2022-10-26T13:28:00;15.70;99.90
13336;DHT22;6737;51.480;11.962;2022-10-26T13:30:43;15.70;99.90
13336;DHT22;6737;51.480;11.962;2022-10-26T13:33:16;15.60;99.90
13336;DHT22;6737;51.480;11.962;2022-10-26T13:35:42;15.60;99.90
13336;DHT22;6737;51.480;11.962;2022-10-26T13:38:10;15.60;99.90
13336;DHT22;6737;51.480;11.962;2022-10-26T13:40:38;15.50;99.90
13336;DHT22;6737;51.480;11.962;2022-10-26T13:43:10;15.50;99.90
13336;DHT22;6737;51.480;11.962;2022-10-26T13:45:59;15.50;99.90
13336;DHT22;6737;51.480;11.962;2022-10-26T13:48:40;15.40;99.90
13336;DHT22;6737;51.480;11.962;2022-10-26T13:51:35;15.40;99.90
13336;DHT22;6737;51.480;11.962;2022-10-26T13:54:26;15.40;99.90
13336;DHT22;6737;51.480;11.962;2022-10-26T13:59:25;15.40;99.90
13336;DHT22;6737;51.480;11.962;2022-10-26T14:02:22;15.30;99.90
13336;DHT22;6737;51.480;11.962;2022-10-26T14:04:53;15.30;99.90
13336;DHT22;6737;51.480;11.962;2022-10-26T14:07:38;15.40;99.90
13336;DHT22;6737;51.480;11.962;2022-10-26T14:10:04;15.40;99.90
13336;DHT22;6737;51.480;11.962;2022-10-26T14:12:31;15.40;99.90
13336;DHT22;6737;51.480;11.962;2022-10-26T14:15:04;15.40;99.90
13336;DHT22;6737;51.480;11.962;2022-10-26T14:17:32;15.40;99.90
13336;DHT22;6737;51.480;11.962;2022-10-26T14:19:58;15.40;99.90
13336;DHT22;6737;51.480;11.962;2022-10-26T14:22:26;15.40;99.90
13336;DHT22;6737;51.480;11.962;2022-10-26T14:24:58;15.40;99.90
13336;DHT22;6737;51.480;11.962;2022-10-26T14:27:27;15.40;99.90
13336;DHT22;6737;51.480;11.962;2022-10-26T14:29:55;15.50;99.90
13336;DHT22;6737;51.480;11.962;2022-10-26T14:32:31;15.50;99.90
13336;DHT22;6737;51.480;11.962;2022-10-26T14:34:58;15.50;99.90
13336;DHT22;6737;51.480;11.962;2022-10-26T14:37:37;15.50;99.90
13336;DHT22;6737;51.480;11.962;2022-10-26T14:40:05;15.50;99.90
13336;DHT22;6737;51.480;11.962;2022-10-26T14:42:39;15.40;99.90
13336;DHT22;6737;51.480;11.962;2022-10-26T14:45:17;15.40;99.90
13336;DHT22;6737;51.480;11.962;2022-10-26T14:47:48;15.40;99.90
13336;DHT22;6737;51.480;11.962;2022-10-26T14:50:23;15.30;99.90
13336;DHT22;6737;51.480;11.962;2022-10-26T14:52:54;15.30;99.90
13336;DHT22;6737;51.480;11.962;2022-10-26T14:55:21;15.30;99.90
13336;DHT22;6737;51.480;11.962;2022-10-26T14:57:51;15.30;99.90
13336;DHT22;6737;51.480;11.962;2022-10-26T15:00:22;15.20;99.90
13336;DHT22;6737;51.480;11.962;2022-10-26T15:02:56;15.30;99.90
13336;DHT22;6737;51.480;11.962;2022-10-26T15:07:49;15.20;99.90
13336;DHT22;6737;51.480;11.962;2022-10-26T15:13:19;15.20;99.90
13336;DHT22;6737;51.480;11.962;2022-10-26T15:15:46;15.20;99.90
13336;DHT22;6737;51.480;11.962;2022-10-26T15:18:39;15.20;99.90
13336;DHT22;6737;51.480;11.962;2022-10-26T15:21:23;15.20;99.90
13336;DHT22;6737;51.480;11.962;2022-10-26T15:23:50;15.20;99.90
13336;DHT22;6737;51.480;11.962;2022-10-26T15:26:17;15.10;99.90
13336;DHT22;6737;51.480;11.962;2022-10-26T15:28:43;15.20;99.90
13336;DHT22;6737;51.480;11.962;2022-10-26T15:33:38;15.10;99.90
13336;DHT22;6737;51.480;11.962;2022-10-26T15:38:33;15.10;99.90
13336;DHT22;6737;51.480;11.962;2022-10-26T15:40:59;15.10;99.90
13336;DHT22;6737;51.480;11.962;2022-10-26T15:43:25;15.10;99.90
13336;DHT22;6737;51.480;11.962;2022-10-26T15:45:51;15.00;99.90
13336;DHT22;6737;51.480;11.962;2022-10-26T15:48:22;15.00;99.90
13336;DHT22;6737;51.480;11.962;2022-10-26T15:50:50;14.90;99.90
13336;DHT22;6737;51.480;11.962;2022-10-26T15:53:21;14.90;99.90
13336;DHT22;6737;51.480;11.962;2022-10-26T15:55:48;14.90;99.90
13336;DHT22;6737;51.480;11.962;2022-10-26T15:58:16;14.90;99.90
13336;DHT22;6737;51.480;11.962;2022-10-26T16:00:41;14.90;99.90
13336;DHT22;6737;51.480;11.962;2022-10-26T16:03:19;14.90;99.90
13336;DHT22;6737;51.480;11.962;2022-10-26T16:05:46;14.90;99.90
13336;DHT22;6737;51.480;11.962;2022-10-26T16:08:15;14.90;99.90
13336;DHT22;6737;51.480;11.962;2022-10-26T16:10:42;14.90;99.90
13336;DHT22;6737;51.480;11.962;2022-10-26T16:13:14;14.90;99.90
13336;DHT22;6737;51.480;11.962;2022-10-26T16:15:41;14.90;99.90
13336;DHT22;6737;51.480;11.962;2022-10-26T16:18:07;14.80;99.90
13336;DHT22;6737;51.480;11.962;2022-10-26T16:20:33;14.80;99.90
13336;DHT22;6737;51.480;11.962;2022-10-26T16:22:59;14.80;99.90
13336;DHT22;6737;51.480;11.962;2022-10-26T16:25:33;14.70;99.90
13336;DHT22;6737;51.480;11.962;2022-10-26T16:28:00;14.70;99.90
13336;DHT22;6737;51.480;11.962;2022-10-26T16:30:27;14.60;99.90
13336;DHT22;6737;51.480;11.962;2022-10-26T16:32:54;14.60;99.90
13336;DHT22;6737;51.480;11.962;2022-10-26T16:35:20;14.50;99.90
13336;DHT22;6737;51.480;11.962;2022-10-26T16:37:47;14.50;99.90
13336;DHT22;6737;51.480;11.962;2022-10-26T16:40:13;14.40;99.90
13336;DHT22;6737;51.480;11.962;2022-10-26T16:42:39;14.40;99.90
13336;DHT22;6737;51.480;11.962;2022-10-26T16:45:13;14.30;99.90
13336;DHT22;6737;51.480;11.962;2022-10-26T16:47:39;14.30;99.90
13336;DHT22;6737;51.480;11.962;2022-10-26T16:50:11;14.30;99.90
13336;DHT22;6737;51.480;11.962;2022-10-26T16:52:37;14.20;99.90
13336;DHT22;6737;51.480;11.962;2022-10-26T16:55:04;14.20;99.90
13336;DHT22;6737;51.480;11.962;2022-10-26T16:57:31;14.10;99.90
13336;DHT22;6737;51.480;11.962;2022-10-26T16:59:57;14.10;99.90
13336;DHT22;6737;51.480;11.962;2022-10-26T17:02:23;14.00;99.90
13336;DHT22;6737;51.480;11.962;2022-10-26T17:04:49;13.90;99.90
13336;DHT22;6737;51.480;11.962;2022-10-26T17:07:14;13.90;99.90
13336;DHT22;6737;51.480;11.962;2022-10-26T17:09:40;13.90;99.90
13336;DHT22;6737;51.480;11.962;2022-10-26T17:12:06;13.80;99.90
13336;DHT22;6737;51.480;11.962;2022-10-26T17:14:32;13.80;99.90
13336;DHT22;6737;51.480;11.962;2022-10-26T17:16:58;13.80;99.90
13336;DHT22;6737;51.480;11.962;2022-10-26T17:19:23;13.80;99.90
13336;DHT22;6737;51.480;11.962;2022-10-26T17:21:49;13.70;99.90
13336;DHT22;6737;51.480;11.962;2022-10-26T17:24:15;13.70;99.90
13336;DHT22;6737;51.480;11.962;2022-10-26T17:26:40;13.70;99.90
13336;DHT22;6737;51.480;11.962;2022-10-26T17:29:08;13.70;99.90
13336;DHT22;6737;51.480;11.962;2022-10-26T17:31:33;13.70;99.90
13336;DHT22;6737;51.480;11.962;2022-10-26T17:34:01;13.60;99.90
13336;DHT22;6737;51.480;11.962;2022-10-26T17:36:27;13.60;99.90
13336;DHT22;6737;51.480;11.962;2022-10-26T17:38:54;13.60;99.90
13336;DHT22;6737;51.480;11.962;2022-10-26T17:41:21;13.50;99.90
13336;DHT22;6737;51.480;11.962;2022-10-26T17:43:48;13.50;99.90
13336;DHT22;6737;51.480;11.962;2022-10-26T17:46:22;13.50;99.90
13336;DHT22;6737;51.480;11.962;2022-10-26T17:48:53;13.50;99.90
13336;DHT22;6737;51.480;11.962;2022-10-26T17:51:19;13.50;99.90
13336;DHT22;6737;51.480;11.962;2022-10-26T17:53:48;13.30;99.90
13336;DHT22;6737;51.480;11.962;2022-10-26T17:56:26;13.30;99.90
13336;DHT22;6737;51.480;11.962;2022-10-26T17:58:53;13.30;99.90
13336;DHT22;6737;51.480;11.962;2022-10-26T18:01:20;13.30;99.90
13336;DHT22;6737;51.480;11.962;2022-10-26T18:03:46;13.20;99.90
13336;DHT22;6737;51.480;11.962;2022-10-26T18:06:12;13.10;99.90
13336;DHT22;6737;51.480;11.962;2022-10-26T18:08:38;13.10;99.90
13336;DHT22;6737;51.480;11.962;2022-10-26T18:11:06;13.10;99.90
13336;DHT22;6737;51.480;11.962;2022-10-26T18:13:35;13.10;99.90
13336;DHT22;6737;51.480;11.962;2022-10-26T18:16:09;13.10;99.90
13336;DHT22;6737;51.480;11.962;2022-10-26T18:18:35;13.00;99.90